Time,TemperatureF,DewpointF,PressureIn,WindDirection,WindDirectionDegrees,WindSpeedMPH,WindSpeedGustMPH,Humidity,HourlyPrecipIn,Conditions,Clouds,dailyrainin,SoftwareType,DateUTC
2013-05-18 00:00:00,78.2,71.2,29.69,SE,143,3.0,8.0,79,0.00,,---,0.00,VWS V14.01,2013-05-18 05:00:00,
2013-05-18 00:03:00,77.9,70.9,29.69,SE,136,0.0,4.0,79,0.00,,---,0.00,VWS V14.01,2013-05-18 05:03:00,
2013-05-18 00:06:00,77.8,70.8,29.69,SE,136,0.0,4.0,79,0.00,,---,0.00,VWS V14.01,2013-05-18 05:06:00,
2013-05-18 00:09:00,77.6,70.9,29.69,SE,135,1.0,4.0,80,0.00,,---,0.00,VWS V14.01,2013-05-18 05:09:00,
2013-05-18 00:12:00,77.5,70.8,29.69,SSE,168,2.0,6.0,80,0.00,,---,0.00,VWS V14.01,2013-05-18 05:12:00,
2013-05-18 00:15:00,77.4,71.1,29.69,SE,146,3.0,6.0,81,0.00,,---,0.00,VWS V14.01,2013-05-18 05:15:00,
2013-05-18 00:18:00,77.5,71.2,29.69,SE,135,4.0,6.0,81,0.00,,---,0.00,VWS V14.01,2013-05-18 05:18:00,
2013-05-18 00:21:00,77.5,71.2,29.69,SE,128,3.0,6.0,81,0.00,,---,0.00,VWS V14.01,2013-05-18 05:21:00,
2013-05-18 00:24:00,77.5,71.2,29.69,SE,138,1.0,6.0,81,0.00,,---,0.00,VWS V14.01,2013-05-18 05:24:00,
2013-05-18 00:28:00,77.4,71.1,29.69,SE,130,6.0,6.0,81,0.00,,---,0.00,VWS V14.01,2013-05-18 05:28:00,
2013-05-18 00:30:00,77.4,71.1,29.69,SE,142,2.0,6.0,81,0.00,,---,0.00,VWS V14.01,2013-05-18 05:30:00,
2013-05-18 00:31:00,77.4,71.1,29.69,SE,138,2.0,3.0,81,0.00,,---,0.00,VWS V14.01,2013-05-18 05:31:00,
2013-05-18 00:34:00,77.3,71.0,29.69,SE,129,3.0,5.0,81,0.00,,---,0.00,VWS V14.01,2013-05-18 05:34:00,
2013-05-18 00:37:00,77.2,70.9,29.69,SSE,148,0.0,5.0,81,0.00,,---,0.00,VWS V14.01,2013-05-18 05:37:00,
2013-05-18 00:40:00,77.0,70.7,29.69,SSE,147,1.0,5.0,81,0.00,,---,0.00,VWS V14.01,2013-05-18 05:40:00,
2013-05-18 00:43:00,76.9,71.0,29.69,SE,135,1.0,5.0,82,0.00,,---,0.00,VWS V14.01,2013-05-18 05:43:00,
2013-05-18 00:46:00,76.7,70.8,29.69,SE,131,0.0,5.0,82,0.00,,---,0.00,VWS V14.01,2013-05-18 05:46:00,
2013-05-18 00:49:00,76.7,70.8,29.69,SE,131,2.0,5.0,82,0.00,,---,0.00,VWS V14.01,2013-05-18 05:49:00,
2013-05-18 00:52:00,76.5,70.6,29.69,SE,125,2.0,5.0,82,0.00,,---,0.00,VWS V14.01,2013-05-18 05:52:00,
2013-05-18 00:55:00,76.4,70.9,29.68,SE,146,3.0,5.0,83,0.00,,---,0.00,VWS V14.01,2013-05-18 05:55:00,
2013-05-18 00:58:00,76.3,70.8,29.69,SE,143,6.0,7.0,83,0.00,,---,0.00,VWS V14.01,2013-05-18 05:58:00,
2013-05-18 01:00:00,76.3,70.8,29.68,South,173,2.0,7.0,83,0.00,,---,0.00,VWS V14.01,2013-05-18 06:00:00,
2013-05-18 01:01:00,76.2,70.7,29.68,SSE,168,4.0,4.0,83,0.00,,---,0.00,VWS V14.01,2013-05-18 06:01:00,
2013-05-18 01:04:00,76.2,70.7,29.68,South,171,1.0,7.0,83,0.00,,---,0.00,VWS V14.01,2013-05-18 06:04:00,
2013-05-18 01:07:00,76.2,70.7,29.68,South,177,4.0,7.0,83,0.00,,---,0.00,VWS V14.01,2013-05-18 06:07:00,
2013-05-18 01:13:00,76.0,70.5,29.68,South,178,0.0,7.0,83,0.00,,---,0.00,VWS V14.01,2013-05-18 06:13:00,
2013-05-18 01:16:00,75.9,70.4,29.68,South,177,0.0,7.0,83,0.00,,---,0.00,VWS V14.01,2013-05-18 06:16:00,
2013-05-18 01:19:00,75.8,70.3,29.69,SSE,167,2.0,7.0,83,0.00,,---,0.00,VWS V14.01,2013-05-18 06:19:00,
2013-05-18 01:22:00,75.8,70.3,29.68,SSE,167,1.0,7.0,83,0.00,,---,0.00,VWS V14.01,2013-05-18 06:22:00,
2013-05-18 01:25:00,75.7,70.2,29.68,SSE,167,0.0,7.0,83,0.00,,---,0.00,VWS V14.01,2013-05-18 06:25:00,
2013-05-18 01:30:00,75.7,70.2,29.68,SSE,165,3.0,7.0,83,0.00,,---,0.00,VWS V14.01,2013-05-18 06:30:00,
2013-05-18 01:31:00,75.7,70.2,29.68,SSE,165,1.0,4.0,83,0.00,,---,0.00,VWS V14.01,2013-05-18 06:31:00,
2013-05-18 01:34:00,75.7,70.2,29.68,SSE,163,1.0,4.0,83,0.00,,---,0.00,VWS V14.01,2013-05-18 06:34:00,
2013-05-18 01:37:00,75.7,70.5,29.68,SSE,163,4.0,4.0,84,0.00,,---,0.00,VWS V14.01,2013-05-18 06:37:00,
2013-05-18 01:40:00,75.7,70.5,29.68,SSE,165,1.0,5.0,84,0.00,,---,0.00,VWS V14.01,2013-05-18 06:40:00,
2013-05-18 01:43:00,75.7,70.5,29.68,SSE,165,1.0,5.0,84,0.00,,---,0.00,VWS V14.01,2013-05-18 06:43:00,
2013-05-18 01:46:00,75.7,70.5,29.68,SSE,150,2.0,5.0,84,0.00,,---,0.00,VWS V14.01,2013-05-18 06:46:00,
2013-05-18 01:49:00,75.7,70.5,29.68,SSE,150,2.0,5.0,84,0.00,,---,0.00,VWS V14.01,2013-05-18 06:49:00,
2013-05-18 01:52:00,75.6,70.4,29.68,SSE,150,0.0,5.0,84,0.00,,---,0.00,VWS V14.01,2013-05-18 06:52:00,
2013-05-18 01:55:00,75.6,70.4,29.68,SSE,149,0.0,5.0,84,0.00,,---,0.00,VWS V14.01,2013-05-18 06:55:00,
2013-05-18 01:58:00,75.5,70.3,29.68,SSE,149,0.0,5.0,84,0.00,,---,0.00,VWS V14.01,2013-05-18 06:58:00,
2013-05-18 02:01:00,75.4,70.2,29.68,SSE,149,2.0,2.0,84,0.00,,---,0.00,VWS V14.01,2013-05-18 07:01:00,
2013-05-18 02:04:00,75.3,70.1,29.68,SSE,149,2.0,2.0,84,0.00,,---,0.00,VWS V14.01,2013-05-18 07:04:00,
2013-05-18 02:07:00,75.2,70.0,29.67,SSE,151,2.0,4.0,84,0.00,,---,0.00,VWS V14.01,2013-05-18 07:07:00,
2013-05-18 02:08:00,76.1,70.6,29.68,South,179,4.0,7.0,83,0.00,,---,0.00,VWS V14.01,2013-05-18 07:08:00,
2013-05-18 02:10:00,75.0,70.2,29.67,SSE,151,1.0,4.0,85,0.00,,---,0.00,VWS V14.01,2013-05-18 07:10:00,
2013-05-18 02:13:00,74.9,70.1,29.67,SSE,151,4.0,4.0,85,0.00,,---,0.00,VWS V14.01,2013-05-18 07:13:00,
2013-05-18 02:22:00,75.0,70.2,29.67,South,169,2.0,6.0,85,0.00,,---,0.00,VWS V14.01,2013-05-18 07:22:00,
2013-05-18 02:25:00,75.3,70.1,29.67,South,181,3.0,6.0,84,0.00,,---,0.00,VWS V14.01,2013-05-18 07:25:00,
2013-05-18 02:27:00,75.7,70.2,29.68,SSE,167,1.0,7.0,83,0.00,,---,0.00,VWS V14.01,2013-05-18 07:27:00,
2013-05-18 02:28:00,75.5,70.3,29.67,South,174,1.0,6.0,84,0.00,,---,0.00,VWS V14.01,2013-05-18 07:28:00,
2013-05-18 02:31:00,75.7,70.5,29.67,South,173,3.0,4.0,84,0.00,,---,0.00,VWS V14.01,2013-05-18 07:31:00,
2013-05-18 02:34:00,75.8,70.3,29.67,South,173,2.0,4.0,83,0.00,,---,0.00,VWS V14.01,2013-05-18 07:34:00,
2013-05-18 02:37:00,75.8,70.3,29.67,South,174,2.0,4.0,83,0.00,,---,0.00,VWS V14.01,2013-05-18 07:37:00,
2013-05-18 02:44:00,75.9,70.4,29.67,South,175,2.0,5.0,83,0.00,,---,0.00,VWS V14.01,2013-05-18 07:44:00,
2013-05-18 02:47:00,75.8,70.3,29.68,South,180,2.0,5.0,83,0.00,,---,0.00,VWS V14.01,2013-05-18 07:47:00,
2013-05-18 02:58:00,75.4,70.2,29.68,SSE,149,0.0,5.0,84,0.00,,---,0.00,VWS V14.01,2013-05-18 07:58:00,
2013-05-18 02:59:00,75.5,70.3,29.68,South,172,2.0,5.0,84,0.00,,---,0.00,VWS V14.01,2013-05-18 07:59:00,
2013-05-18 03:05:00,75.4,70.2,29.68,South,180,0.0,4.0,84,0.00,,---,0.00,VWS V14.01,2013-05-18 08:05:00,
2013-05-18 03:15:00,74.8,70.0,29.67,SSE,157,2.0,4.0,85,0.00,,---,0.00,VWS V14.01,2013-05-18 08:15:00,
2013-05-18 03:23:00,75.9,71.1,29.68,SSW,192,2.0,6.0,85,0.00,,---,0.00,VWS V14.01,2013-05-18 08:23:00,
2013-05-18 03:28:00,75.6,70.4,29.67,South,170,4.0,6.0,84,0.00,,---,0.00,VWS V14.01,2013-05-18 08:28:00,
2013-05-18 03:39:00,75.9,70.4,29.67,South,175,3.0,5.0,83,0.00,,---,0.00,VWS V14.01,2013-05-18 08:39:00,
2013-05-18 03:48:00,75.7,70.2,29.68,South,180,2.0,5.0,83,0.00,,---,0.00,VWS V14.01,2013-05-18 08:48:00,
2013-05-18 03:54:00,75.6,70.4,29.67,South,171,1.0,5.0,84,0.00,,---,0.00,VWS V14.01,2013-05-18 08:54:00,
2013-05-18 03:58:00,75.5,70.3,29.68,South,177,1.0,5.0,84,0.00,,---,0.00,VWS V14.01,2013-05-18 08:58:00,
2013-05-18 04:00:00,75.5,70.3,29.68,South,177,3.0,3.0,84,0.00,,---,0.00,VWS V14.01,2013-05-18 09:00:00,
2013-05-18 04:06:00,75.3,70.1,29.68,SSW,196,2.0,4.0,84,0.00,,---,0.00,VWS V14.01,2013-05-18 09:06:00,
2013-05-18 04:09:00,75.4,70.2,29.68,SSW,194,2.0,4.0,84,0.00,,---,0.00,VWS V14.01,2013-05-18 09:09:00,
2013-05-18 04:12:00,75.5,70.7,29.68,SSE,165,2.0,5.0,85,0.00,,---,0.00,VWS V14.01,2013-05-18 09:12:00,
2013-05-18 04:18:00,75.7,70.9,29.68,South,178,3.0,5.0,85,0.00,,---,0.00,VWS V14.01,2013-05-18 09:18:00,
2013-05-18 04:24:00,75.9,70.7,29.68,South,186,2.0,6.0,84,0.00,,---,0.00,VWS V14.01,2013-05-18 09:24:00,
2013-05-18 04:27:00,75.9,70.7,29.68,SSW,192,3.0,6.0,84,0.00,,---,0.00,VWS V14.01,2013-05-18 09:27:00,
2013-05-18 04:28:00,76.0,70.8,29.68,South,182,2.0,6.0,84,0.00,,---,0.00,VWS V14.01,2013-05-18 09:28:00,
2013-05-18 04:34:00,76.2,71.0,29.68,SSW,192,3.0,6.0,84,0.00,,---,0.00,VWS V14.01,2013-05-18 09:34:00,
2013-05-18 04:40:00,76.2,71.0,29.68,SSE,161,3.0,8.0,84,0.00,,---,0.00,VWS V14.01,2013-05-18 09:40:00,
2013-05-18 04:46:00,76.2,71.0,29.69,South,176,7.0,8.0,84,0.00,,---,0.00,VWS V14.01,2013-05-18 09:46:00,
2013-05-18 04:52:00,76.3,71.1,29.68,South,188,3.0,8.0,84,0.00,,---,0.00,VWS V14.01,2013-05-18 09:52:00,
2013-05-18 04:55:00,76.2,71.0,29.68,SSW,207,4.0,8.0,84,0.00,,---,0.00,VWS V14.01,2013-05-18 09:55:00,
2013-05-18 04:58:00,76.1,70.9,29.68,South,185,5.0,8.0,84,0.00,,---,0.00,VWS V14.01,2013-05-18 09:58:00,
2013-05-18 05:01:00,76.1,70.9,29.68,South,188,4.0,7.0,84,0.00,,---,0.00,VWS V14.01,2013-05-18 10:01:00,
2013-05-18 05:04:00,76.1,70.9,29.68,SSW,200,4.0,8.0,84,0.00,,---,0.00,VWS V14.01,2013-05-18 10:04:00,
2013-05-18 05:07:00,76.0,70.8,29.68,SSW,200,3.0,8.0,84,0.00,,---,0.00,VWS V14.01,2013-05-18 10:07:00,
2013-05-18 05:10:00,75.9,70.7,29.68,South,188,7.0,8.0,84,0.00,,---,0.00,VWS V14.01,2013-05-18 10:10:00,
2013-05-18 05:13:00,75.8,71.0,29.68,SSW,192,4.0,8.0,85,0.00,,---,0.00,VWS V14.01,2013-05-18 10:13:00,
2013-05-18 05:16:00,75.8,71.0,29.68,SW,215,7.0,8.0,85,0.00,,---,0.00,VWS V14.01,2013-05-18 10:16:00,
2013-05-18 05:19:00,76.0,70.8,29.68,SSW,202,3.0,11.0,84,0.00,,---,0.00,VWS V14.01,2013-05-18 10:19:00,
2013-05-18 05:25:00,76.1,70.9,29.68,SSE,154,6.0,11.0,84,0.00,,---,0.00,VWS V14.01,2013-05-18 10:25:00,
2013-05-18 05:28:00,76.1,70.9,29.68,South,183,8.0,11.0,84,0.00,,---,0.00,VWS V14.01,2013-05-18 10:28:00,
2013-05-18 05:31:00,76.1,70.9,29.68,South,180,4.0,8.0,84,0.00,,---,0.00,VWS V14.01,2013-05-18 10:31:00,
2013-05-18 05:34:00,75.9,70.7,29.68,South,178,7.0,8.0,84,0.00,,---,0.00,VWS V14.01,2013-05-18 10:34:00,
2013-05-18 05:37:00,75.9,70.7,29.69,South,183,1.0,9.0,84,0.00,,---,0.00,VWS V14.01,2013-05-18 10:37:00,
2013-05-18 05:40:00,75.8,71.0,29.69,SSW,196,4.0,9.0,85,0.00,,---,0.00,VWS V14.01,2013-05-18 10:40:00,
2013-05-18 05:43:00,75.8,71.0,29.69,SSW,200,3.0,9.0,85,0.00,,---,0.00,VWS V14.01,2013-05-18 10:43:00,
2013-05-18 05:46:00,75.7,70.9,29.69,South,189,8.0,9.0,85,0.00,,---,0.00,VWS V14.01,2013-05-18 10:46:00,
2013-05-18 05:52:00,75.7,70.9,29.70,South,184,4.0,9.0,85,0.00,,---,0.00,VWS V14.01,2013-05-18 10:52:00,
2013-05-18 05:55:00,75.6,70.8,29.70,South,178,6.0,9.0,85,0.00,,---,0.00,VWS V14.01,2013-05-18 10:55:00,
2013-05-18 05:58:00,75.4,70.6,29.70,South,169,5.0,9.0,85,0.00,,---,0.00,VWS V14.01,2013-05-18 10:58:00,
2013-05-18 06:04:00,75.1,70.6,29.70,South,184,4.0,8.0,86,0.00,,---,0.00,VWS V14.01,2013-05-18 11:04:00,
2013-05-18 06:07:00,75.1,70.6,29.70,SSW,208,3.0,8.0,86,0.00,,---,0.00,VWS V14.01,2013-05-18 11:07:00,
2013-05-18 06:10:00,75.1,70.6,29.70,South,179,5.0,9.0,86,0.00,,---,0.00,VWS V14.01,2013-05-18 11:10:00,
2013-05-18 06:13:00,75.1,70.6,29.70,South,174,4.0,10.0,86,0.00,,---,0.00,VWS V14.01,2013-05-18 11:13:00,
2013-05-18 06:16:00,75.0,70.5,29.70,SSW,202,4.0,10.0,86,0.00,,---,0.00,VWS V14.01,2013-05-18 11:16:00,
2013-05-18 06:19:00,74.9,70.8,29.70,SSW,192,6.0,10.0,87,0.00,,---,0.00,VWS V14.01,2013-05-18 11:19:00,
2013-05-18 06:22:00,74.9,70.8,29.70,South,180,1.0,10.0,87,0.00,,---,0.00,VWS V14.01,2013-05-18 11:22:00,
2013-05-18 06:25:00,74.7,70.6,29.70,SSE,156,3.0,10.0,87,0.00,,---,0.00,VWS V14.01,2013-05-18 11:25:00,
2013-05-18 06:28:00,74.6,70.5,29.70,South,180,2.0,2.0,87,0.00,,---,0.00,VWS V14.01,2013-05-18 11:28:00,
2013-05-18 06:31:00,74.6,70.5,29.71,South,191,3.0,8.0,87,0.00,,---,0.00,VWS V14.01,2013-05-18 11:31:00,
2013-05-18 06:34:00,74.5,70.4,29.71,South,175,3.0,8.0,87,0.00,,---,0.00,VWS V14.01,2013-05-18 11:34:00,
2013-05-18 06:37:00,74.5,70.4,29.71,South,172,3.0,8.0,87,0.00,,---,0.00,VWS V14.01,2013-05-18 11:37:00,
2013-05-18 06:40:00,74.4,70.3,29.71,South,186,3.0,8.0,87,0.00,,---,0.00,VWS V14.01,2013-05-18 11:40:00,
2013-05-18 06:43:00,74.3,70.5,29.71,South,170,5.0,8.0,88,0.00,,---,0.00,VWS V14.01,2013-05-18 11:43:00,
2013-05-18 06:46:00,74.3,70.5,29.71,South,169,5.0,8.0,88,0.00,,---,0.00,VWS V14.01,2013-05-18 11:46:00,
2013-05-18 06:49:00,74.4,70.6,29.71,South,177,5.0,8.0,88,0.00,,---,0.00,VWS V14.01,2013-05-18 11:49:00,
2013-05-18 06:52:00,74.5,70.7,29.71,SSE,167,2.0,8.0,88,0.00,,---,0.00,VWS V14.01,2013-05-18 11:52:00,
2013-05-18 06:58:00,74.5,70.4,29.71,South,185,4.0,8.0,87,0.00,,---,0.00,VWS V14.01,2013-05-18 11:58:00,
2013-05-18 06:59:00,74.5,70.4,29.71,South,184,6.0,6.0,87,0.00,,---,0.00,VWS V14.01,2013-05-18 11:59:00,
2013-05-18 07:02:00,74.5,70.4,29.71,South,183,7.0,9.0,87,0.00,,---,0.00,VWS V14.01,2013-05-18 12:02:00,
2013-05-18 07:05:00,74.6,70.5,29.71,SSW,200,7.0,9.0,87,0.00,,---,0.00,VWS V14.01,2013-05-18 12:05:00,
2013-05-18 07:08:00,74.6,70.5,29.71,South,176,6.0,9.0,87,0.00,,---,0.00,VWS V14.01,2013-05-18 12:08:00,
2013-05-18 07:11:00,74.7,70.6,29.71,South,185,4.0,9.0,87,0.00,,---,0.00,VWS V14.01,2013-05-18 12:11:00,
2013-05-18 07:14:00,74.8,70.7,29.71,SSW,204,6.0,10.0,87,0.00,,---,0.00,VWS V14.01,2013-05-18 12:14:00,
2013-05-18 07:20:00,75.0,70.5,29.71,South,182,8.0,12.0,86,0.00,,---,0.00,VWS V14.01,2013-05-18 12:20:00,
2013-05-18 07:26:00,75.2,70.7,29.71,SSW,198,9.0,12.0,86,0.00,,---,0.00,VWS V14.01,2013-05-18 12:26:00,
2013-05-18 07:28:00,75.3,70.5,29.71,SSW,192,4.0,12.0,85,0.00,,---,0.00,VWS V14.01,2013-05-18 12:28:00,
2013-05-18 07:29:00,75.3,70.5,29.71,SSE,150,8.0,8.0,85,0.00,,---,0.00,VWS V14.01,2013-05-18 12:29:00,
2013-05-18 07:32:00,75.3,70.5,29.72,SSW,196,5.0,10.0,85,0.00,,---,0.00,VWS V14.01,2013-05-18 12:32:00,
2013-05-18 07:35:00,75.5,70.7,29.72,SSW,200,10.0,14.0,85,0.00,,---,0.00,VWS V14.01,2013-05-18 12:35:00,
2013-05-18 07:41:00,75.9,70.7,29.71,South,182,8.0,14.0,84,0.00,,---,0.00,VWS V14.01,2013-05-18 12:41:00,
2013-05-18 07:44:00,76.1,70.6,29.72,SSW,194,5.0,14.0,83,0.00,,---,0.00,VWS V14.01,2013-05-18 12:44:00,
2013-05-18 07:47:00,76.2,70.7,29.71,South,177,10.0,14.0,83,0.00,,---,0.00,VWS V14.01,2013-05-18 12:47:00,
2013-05-18 07:53:00,76.6,70.3,29.71,SSW,197,7.0,14.0,81,0.00,,---,0.00,VWS V14.01,2013-05-18 12:53:00,
2013-05-18 07:56:00,76.8,70.5,29.71,SSE,162,4.0,14.0,81,0.00,,---,0.00,VWS V14.01,2013-05-18 12:56:00,
2013-05-18 07:58:00,76.9,70.3,29.71,SSW,204,7.0,14.0,80,0.00,,---,0.00,VWS V14.01,2013-05-18 12:58:00,
2013-05-18 08:02:00,77.2,70.2,29.71,SSW,196,8.0,13.0,79,0.00,,---,0.00,VWS V14.01,2013-05-18 13:02:00,
2013-05-18 08:05:00,77.4,70.0,29.72,SSW,192,10.0,15.0,78,0.00,,---,0.00,VWS V14.01,2013-05-18 13:05:00,
2013-05-18 08:08:00,77.6,70.6,29.71,SSW,196,8.0,15.0,79,0.00,,---,0.00,VWS V14.01,2013-05-18 13:08:00,
2013-05-18 08:11:00,77.6,69.8,29.72,South,189,7.0,15.0,77,0.00,,---,0.00,VWS V14.01,2013-05-18 13:11:00,
2013-05-18 08:14:00,77.7,69.9,29.72,SSE,166,13.0,19.0,77,0.00,,---,0.00,VWS V14.01,2013-05-18 13:14:00,
2013-05-18 08:17:00,77.8,69.6,29.72,SSW,202,7.0,19.0,76,0.00,,---,0.00,VWS V14.01,2013-05-18 13:17:00,
2013-05-18 08:20:00,77.8,69.6,29.72,SW,219,12.0,19.0,76,0.00,,---,0.00,VWS V14.01,2013-05-18 13:20:00,
2013-05-18 08:23:00,77.8,69.2,29.72,SSE,165,9.0,19.0,75,0.00,,---,0.00,VWS V14.01,2013-05-18 13:23:00,
2013-05-18 08:26:00,77.8,69.6,29.72,SSW,204,6.0,19.0,76,0.00,,---,0.00,VWS V14.01,2013-05-18 13:26:00,
2013-05-18 08:28:00,77.9,69.3,29.72,South,185,13.0,19.0,75,0.00,,---,0.00,VWS V14.01,2013-05-18 13:28:00,
2013-05-18 08:29:00,77.9,68.9,29.72,SSW,207,14.0,19.0,74,0.00,,---,0.00,VWS V14.01,2013-05-18 13:29:00,
2013-05-18 08:35:00,78.2,69.2,29.72,South,185,9.0,19.0,74,0.00,,---,0.00,VWS V14.01,2013-05-18 13:35:00,
2013-05-18 08:38:00,78.4,69.4,29.72,SSW,203,11.0,19.0,74,0.00,,---,0.00,VWS V14.01,2013-05-18 13:38:00,
2013-05-18 08:41:00,78.5,69.1,29.72,South,190,11.0,19.0,73,0.00,,---,0.00,VWS V14.01,2013-05-18 13:41:00,
2013-05-18 08:44:00,78.7,69.3,29.72,SW,217,9.0,19.0,73,0.00,,---,0.00,VWS V14.01,2013-05-18 13:44:00,
2013-05-18 08:47:00,78.8,69.4,29.72,SSW,197,7.0,19.0,73,0.00,,---,0.00,VWS V14.01,2013-05-18 13:47:00,
2013-05-18 08:50:00,79.0,69.6,29.72,SSW,211,11.0,19.0,73,0.00,,---,0.00,VWS V14.01,2013-05-18 13:50:00,
2013-05-18 08:53:00,79.2,69.4,29.72,SSW,193,6.0,19.0,72,0.00,,---,0.00,VWS V14.01,2013-05-18 13:53:00,
2013-05-18 08:56:00,79.7,69.9,29.72,South,186,12.0,19.0,72,0.00,,---,0.00,VWS V14.01,2013-05-18 13:56:00,
2013-05-18 08:58:00,79.9,69.7,29.72,SSW,193,7.0,19.0,71,0.00,,---,0.00,VWS V14.01,2013-05-18 13:58:00,
2013-05-18 08:59:00,80.1,69.9,29.72,South,186,9.0,13.0,71,0.00,,---,0.00,VWS V14.01,2013-05-18 13:59:00,
2013-05-18 09:05:00,80.3,68.8,29.72,SSW,205,12.0,20.0,68,0.00,,---,0.00,VWS V14.01,2013-05-18 14:05:00,
2013-05-18 09:11:00,80.4,69.3,29.72,SSW,192,10.0,20.0,69,0.00,,---,0.00,VWS V14.01,2013-05-18 14:11:00,
2013-05-18 09:15:00,80.6,69.5,29.72,SSW,196,7.0,20.0,69,0.00,,---,0.00,VWS V14.01,2013-05-18 14:15:00,
2013-05-18 09:21:00,81.0,69.4,29.72,South,188,9.0,20.0,68,0.00,,---,0.00,VWS V14.01,2013-05-18 14:21:00,
2013-05-18 09:27:00,81.0,69.0,29.72,South,184,15.0,22.0,67,0.00,,---,0.00,VWS V14.01,2013-05-18 14:27:00,
2013-05-18 09:28:00,80.9,68.9,29.72,SW,230,17.0,22.0,67,0.00,,---,0.00,VWS V14.01,2013-05-18 14:28:00,
2013-05-18 09:33:00,81.4,69.4,29.72,SSE,155,13.0,19.0,67,0.00,,---,0.00,VWS V14.01,2013-05-18 14:33:00,
2013-05-18 09:39:00,82.4,69.5,29.72,South,189,11.0,19.0,65,0.00,,---,0.00,VWS V14.01,2013-05-18 14:39:00,
2013-05-18 09:42:00,82.7,69.3,29.72,South,186,16.0,19.0,64,0.00,,---,0.00,VWS V14.01,2013-05-18 14:42:00,
2013-05-18 09:45:00,83.2,69.3,29.72,SSW,196,11.0,19.0,63,0.00,,---,0.00,VWS V14.01,2013-05-18 14:45:00,
2013-05-18 09:48:00,83.3,69.4,29.72,South,179,11.0,21.0,63,0.00,,---,0.00,VWS V14.01,2013-05-18 14:48:00,
2013-05-18 09:54:00,84.2,69.3,29.72,SSW,192,11.0,21.0,61,0.00,,---,0.00,VWS V14.01,2013-05-18 14:54:00,
2013-05-18 09:58:00,84.7,69.8,29.72,SSE,149,16.0,21.0,61,0.00,,---,0.00,VWS V14.01,2013-05-18 14:58:00,
2013-05-18 10:00:00,84.8,68.9,29.72,SSE,167,14.0,16.0,59,0.00,,---,0.00,VWS V14.01,2013-05-18 15:00:00,
2013-05-18 10:03:00,85.4,69.4,29.72,SSW,198,6.0,16.0,59,0.00,,---,0.00,VWS V14.01,2013-05-18 15:03:00,
2013-05-18 10:06:00,86.0,69.5,29.71,SSE,168,11.0,16.0,58,0.00,,---,0.00,VWS V14.01,2013-05-18 15:06:00,
2013-05-18 10:09:00,86.5,68.4,29.71,SSW,198,17.0,21.0,55,0.00,,---,0.00,VWS V14.01,2013-05-18 15:09:00,
2013-05-18 10:12:00,86.7,68.1,29.71,South,178,18.0,22.0,54,0.00,,---,0.00,VWS V14.01,2013-05-18 15:12:00,
2013-05-18 10:15:00,86.9,68.3,29.71,SSE,167,8.0,22.0,54,0.00,,---,0.00,VWS V14.01,2013-05-18 15:15:00,
2013-05-18 10:18:00,87.5,68.8,29.71,SSW,196,10.0,22.0,54,0.00,,---,0.00,VWS V14.01,2013-05-18 15:18:00,
2013-05-18 10:21:00,87.8,68.6,29.71,SW,216,15.0,22.0,53,0.00,,---,0.00,VWS V14.01,2013-05-18 15:21:00,
2013-05-18 10:24:00,87.4,67.6,29.71,SSW,203,14.0,22.0,52,0.00,,---,0.00,VWS V14.01,2013-05-18 15:24:00,
2013-05-18 10:27:00,87.6,67.8,29.71,South,185,17.0,22.0,52,0.00,,---,0.00,VWS V14.01,2013-05-18 15:27:00,
2013-05-18 10:28:00,88.0,67.6,29.71,South,173,17.0,22.0,51,0.00,,---,0.00,VWS V14.01,2013-05-18 15:28:00,
2013-05-18 10:36:00,88.9,67.3,29.71,SSW,198,14.0,22.0,49,0.00,,---,0.00,VWS V14.01,2013-05-18 15:36:00,
2013-05-18 10:42:00,89.6,67.9,29.71,SSW,213,10.0,22.0,49,0.00,,---,0.00,VWS V14.01,2013-05-18 15:42:00,
2013-05-18 10:48:00,89.5,68.4,29.71,SSW,209,7.0,22.0,50,0.00,,---,0.00,VWS V14.01,2013-05-18 15:48:00,
2013-05-18 10:54:00,88.4,67.4,29.71,SSW,204,16.0,22.0,50,0.00,,---,0.00,VWS V14.01,2013-05-18 15:54:00,
2013-05-18 10:57:00,87.9,66.4,29.71,SW,215,12.0,22.0,49,0.00,,---,0.00,VWS V14.01,2013-05-18 15:57:00,
2013-05-18 10:58:00,87.8,66.9,29.71,South,190,14.0,22.0,50,0.00,,---,0.00,VWS V14.01,2013-05-18 15:58:00,
2013-05-18 11:00:00,87.9,66.4,29.71,SSW,202,12.0,20.0,49,0.00,,---,0.00,VWS V14.01,2013-05-18 16:00:00,
2013-05-18 11:03:00,89.2,67.6,29.71,South,171,12.0,20.0,49,0.00,,---,0.00,VWS V14.01,2013-05-18 16:03:00,
2013-05-18 11:06:00,90.6,67.0,29.71,South,190,16.0,20.0,46,0.00,,---,0.00,VWS V14.01,2013-05-18 16:06:00,
2013-05-18 11:09:00,91.2,67.6,29.71,SW,217,11.0,20.0,46,0.00,,---,0.00,VWS V14.01,2013-05-18 16:09:00,
2013-05-18 11:12:00,91.5,67.8,29.71,SSW,200,11.0,20.0,46,0.00,,---,0.00,VWS V14.01,2013-05-18 16:12:00,
2013-05-18 11:15:00,91.8,68.1,29.71,SSW,208,11.0,20.0,46,0.00,,---,0.00,VWS V14.01,2013-05-18 16:15:00,
2013-05-18 11:18:00,91.4,67.1,29.71,SW,219,14.0,20.0,45,0.00,,---,0.00,VWS V14.01,2013-05-18 16:18:00,
2013-05-18 11:21:00,90.9,66.6,29.71,South,190,18.0,21.0,45,0.00,,---,0.00,VWS V14.01,2013-05-18 16:21:00,
2013-05-18 11:24:00,91.5,66.5,29.71,South,184,16.0,21.0,44,0.00,,---,0.00,VWS V14.01,2013-05-18 16:24:00,
2013-05-18 11:27:00,91.5,65.9,29.71,SSW,205,13.0,21.0,43,0.00,,---,0.00,VWS V14.01,2013-05-18 16:27:00,
2013-05-18 11:30:00,91.9,66.9,29.71,SSE,154,11.0,19.0,44,0.00,,---,0.00,VWS V14.01,2013-05-18 16:30:00,
2013-05-18 11:34:00,92.7,65.6,29.71,SSW,193,19.0,23.0,41,0.00,,---,0.00,VWS V14.01,2013-05-18 16:34:00,
2013-05-18 11:37:00,92.6,66.2,29.71,SSW,207,15.0,23.0,42,0.00,,---,0.00,VWS V14.01,2013-05-18 16:37:00,
2013-05-18 11:40:00,92.7,66.3,29.71,SSW,197,19.0,23.0,42,0.00,,---,0.00,VWS V14.01,2013-05-18 16:40:00,
2013-05-18 11:43:00,92.0,66.3,29.71,SW,217,18.0,23.0,43,0.00,,---,0.00,VWS V14.01,2013-05-18 16:43:00,
2013-05-18 11:46:00,92.1,66.4,29.72,SSW,202,9.0,23.0,43,0.00,,---,0.00,VWS V14.01,2013-05-18 16:46:00,
2013-05-18 11:49:00,92.9,67.1,29.71,SSW,206,9.0,23.0,43,0.00,,---,0.00,VWS V14.01,2013-05-18 16:49:00,
2013-05-18 11:55:00,92.4,66.7,29.72,South,180,10.0,23.0,43,0.00,,---,0.00,VWS V14.01,2013-05-18 16:55:00,
2013-05-18 11:58:00,91.7,66.7,29.71,SSW,194,14.0,23.0,44,0.00,,---,0.00,VWS V14.01,2013-05-18 16:58:00,
2013-05-18 12:01:00,91.4,66.4,29.72,SSE,163,13.0,22.0,44,0.00,,---,0.00,VWS V14.01,2013-05-18 17:01:00,
2013-05-18 12:04:00,91.2,66.9,29.72,South,189,12.0,22.0,45,0.00,,---,0.00,VWS V14.01,2013-05-18 17:04:00,
2013-05-18 12:07:00,91.0,66.1,29.71,South,187,8.0,22.0,44,0.00,,---,0.00,VWS V14.01,2013-05-18 17:07:00,
2013-05-18 12:10:00,91.4,67.7,29.71,South,178,13.0,22.0,46,0.00,,---,0.00,VWS V14.01,2013-05-18 17:10:00,
2013-05-18 12:16:00,92.3,67.9,29.71,SSW,209,9.0,22.0,45,0.00,,---,0.00,VWS V14.01,2013-05-18 17:16:00,
2013-05-18 12:19:00,92.4,68.0,29.71,SSW,208,12.0,22.0,45,0.00,,---,0.00,VWS V14.01,2013-05-18 17:19:00,
2013-05-18 12:25:00,93.1,68.0,29.71,South,174,7.0,22.0,44,0.00,,---,0.00,VWS V14.01,2013-05-18 17:25:00,
2013-05-18 12:28:00,92.9,67.8,29.71,SSW,206,11.0,22.0,44,0.00,,---,0.00,VWS V14.01,2013-05-18 17:28:00,
2013-05-18 12:31:00,92.4,68.0,29.71,South,173,9.0,17.0,45,0.00,,---,0.00,VWS V14.01,2013-05-18 17:31:00,
2013-05-18 12:34:00,92.2,67.8,29.71,South,184,7.0,17.0,45,0.00,,---,0.00,VWS V14.01,2013-05-18 17:34:00,
2013-05-18 12:37:00,92.4,68.0,29.71,South,186,11.0,17.0,45,0.00,,---,0.00,VWS V14.01,2013-05-18 17:37:00,
2013-05-18 12:40:00,93.1,68.0,29.70,SW,227,9.0,17.0,44,0.00,,---,0.00,VWS V14.01,2013-05-18 17:40:00,
2013-05-18 12:43:00,94.7,65.9,29.70,SSW,210,12.0,18.0,39,0.00,,---,0.00,VWS V14.01,2013-05-18 17:43:00,
2013-05-18 12:46:00,95.1,67.0,29.70,SSW,207,14.0,22.0,40,0.00,,---,0.00,VWS V14.01,2013-05-18 17:46:00,
2013-05-18 12:49:00,95.5,65.9,29.69,SSW,205,10.0,24.0,38,0.00,,---,0.00,VWS V14.01,2013-05-18 17:49:00,
2013-05-18 12:52:00,95.9,65.5,29.69,SSW,201,17.0,24.0,37,0.00,,---,0.00,VWS V14.01,2013-05-18 17:52:00,
2013-05-18 12:58:00,95.0,65.4,29.69,SSW,200,16.0,24.0,38,0.00,,---,0.00,VWS V14.01,2013-05-18 17:58:00,
2013-05-18 13:01:00,94.3,65.6,29.69,South,190,15.0,21.0,39,0.00,,---,0.00,VWS V14.01,2013-05-18 18:01:00,
2013-05-18 13:04:00,94.8,67.4,29.69,SW,226,13.0,21.0,41,0.00,,---,0.00,VWS V14.01,2013-05-18 18:04:00,
2013-05-18 13:07:00,95.0,66.9,29.69,SSW,198,8.0,21.0,40,0.00,,---,0.00,VWS V14.01,2013-05-18 18:07:00,
2013-05-18 13:10:00,95.0,66.2,29.69,SSE,150,11.0,21.0,39,0.00,,---,0.00,VWS V14.01,2013-05-18 18:10:00,
2013-05-18 13:13:00,95.6,66.7,29.69,South,185,7.0,21.0,39,0.00,,---,0.00,VWS V14.01,2013-05-18 18:13:00,
2013-05-18 13:16:00,95.5,65.9,29.69,SW,216,11.0,21.0,38,0.00,,---,0.00,VWS V14.01,2013-05-18 18:16:00,
2013-05-18 13:19:00,96.0,66.3,29.69,SSE,159,13.0,21.0,38,0.00,,---,0.00,VWS V14.01,2013-05-18 18:19:00,
2013-05-18 13:22:00,95.9,66.2,29.69,SSW,196,8.0,21.0,38,0.00,,---,0.00,VWS V14.01,2013-05-18 18:22:00,
2013-05-18 13:25:00,95.6,66.0,29.69,SSE,158,11.0,21.0,38,0.00,,---,0.00,VWS V14.01,2013-05-18 18:25:00,
2013-05-18 13:28:00,95.2,65.6,29.68,SW,218,12.0,21.0,38,0.00,,---,0.00,VWS V14.01,2013-05-18 18:28:00,
2013-05-18 13:34:00,94.5,65.7,29.68,South,188,8.0,15.0,39,0.00,,---,0.00,VWS V14.01,2013-05-18 18:34:00,
2013-05-18 13:37:00,94.4,64.9,29.68,South,188,11.0,17.0,38,0.00,,---,0.00,VWS V14.01,2013-05-18 18:37:00,
2013-05-18 13:40:00,93.9,65.2,29.68,South,186,7.0,17.0,39,0.00,,---,0.00,VWS V14.01,2013-05-18 18:40:00,
2013-05-18 13:47:00,93.2,66.0,29.68,SSW,207,20.0,20.0,41,0.00,,---,0.00,VWS V14.01,2013-05-18 18:47:00,
2013-05-18 13:50:00,92.6,66.2,29.68,SSW,199,14.0,20.0,42,0.00,,---,0.00,VWS V14.01,2013-05-18 18:50:00,
2013-05-18 13:56:00,93.4,66.9,29.68,SSW,197,9.0,20.0,42,0.00,,---,0.00,VWS V14.01,2013-05-18 18:56:00,
2013-05-18 13:58:00,93.8,66.6,29.68,SSW,205,11.0,20.0,41,0.00,,---,0.00,VWS V14.01,2013-05-18 18:58:00,
2013-05-18 13:59:00,93.8,66.6,29.68,South,184,6.0,11.0,41,0.00,,---,0.00,VWS V14.01,2013-05-18 18:59:00,
2013-05-18 14:05:00,96.4,68.2,29.68,SSE,161,13.0,17.0,40,0.00,,---,0.00,VWS V14.01,2013-05-18 19:05:00,
2013-05-18 14:08:00,96.9,67.9,29.68,SSW,210,12.0,17.0,39,0.00,,---,0.00,VWS V14.01,2013-05-18 19:08:00,
2013-05-18 14:11:00,96.5,67.5,29.67,SW,219,13.0,17.0,39,0.00,,---,0.00,VWS V14.01,2013-05-18 19:11:00,
2013-05-18 14:14:00,96.5,68.2,29.67,South,182,10.0,17.0,40,0.00,,---,0.00,VWS V14.01,2013-05-18 19:14:00,
2013-05-18 14:17:00,96.7,67.7,29.67,SSW,207,7.0,18.0,39,0.00,,---,0.00,VWS V14.01,2013-05-18 19:17:00,
2013-05-18 14:20:00,96.6,67.6,29.67,South,173,7.0,18.0,39,0.00,,---,0.00,VWS V14.01,2013-05-18 19:20:00,
2013-05-18 14:23:00,97.1,67.3,29.67,South,182,8.0,18.0,38,0.00,,---,0.00,VWS V14.01,2013-05-18 19:23:00,
2013-05-18 14:26:00,97.3,67.5,29.67,SSW,198,12.0,18.0,38,0.00,,---,0.00,VWS V14.01,2013-05-18 19:26:00,
2013-05-18 14:29:00,97.0,67.9,29.67,South,191,14.0,16.0,39,0.00,,---,0.00,VWS V14.01,2013-05-18 19:29:00,
2013-05-18 14:32:00,97.2,68.1,29.67,South,173,7.0,16.0,39,0.00,,---,0.00,VWS V14.01,2013-05-18 19:32:00,
2013-05-18 14:35:00,97.3,69.0,29.67,SSW,213,10.0,16.0,40,0.00,,---,0.00,VWS V14.01,2013-05-18 19:35:00,
2013-05-18 14:38:00,97.1,68.8,29.66,SE,146,9.0,16.0,40,0.00,,---,0.00,VWS V14.01,2013-05-18 19:38:00,
2013-05-18 14:41:00,97.3,69.7,29.66,SSE,157,12.0,21.0,41,0.00,,---,0.00,VWS V14.01,2013-05-18 19:41:00,
2013-05-18 14:44:00,97.6,67.7,29.66,SSE,153,11.0,21.0,38,0.00,,---,0.00,VWS V14.01,2013-05-18 19:44:00,
2013-05-18 14:47:00,98.1,68.2,29.66,South,173,14.0,21.0,38,0.00,,---,0.00,VWS V14.01,2013-05-18 19:47:00,
2013-05-18 14:53:00,97.9,68.0,29.66,SE,141,8.0,21.0,38,0.00,,---,0.00,VWS V14.01,2013-05-18 19:53:00,
2013-05-18 14:58:00,97.6,69.2,29.66,South,173,16.0,21.0,40,0.00,,---,0.00,VWS V14.01,2013-05-18 19:58:00,
2013-05-18 14:59:00,97.6,69.2,29.66,South,174,11.0,16.0,40,0.00,,---,0.00,VWS V14.01,2013-05-18 19:59:00,
2013-05-18 15:05:00,97.7,68.6,29.66,SSE,147,9.0,18.0,39,0.00,,---,0.00,VWS V14.01,2013-05-18 20:05:00,
2013-05-18 15:08:00,96.9,68.6,29.66,SSE,153,8.0,29.0,40,0.00,,---,0.00,VWS V14.01,2013-05-18 20:08:00,
2013-05-18 15:11:00,95.9,69.1,29.66,SSE,157,8.0,29.0,42,0.00,,---,0.00,VWS V14.01,2013-05-18 20:11:00,
2013-05-18 15:14:00,95.7,68.2,29.66,SSE,149,11.0,29.0,41,0.00,,---,0.00,VWS V14.01,2013-05-18 20:14:00,
2013-05-18 15:17:00,96.7,68.4,29.66,SSE,166,11.0,29.0,40,0.00,,---,0.00,VWS V14.01,2013-05-18 20:17:00,
2013-05-18 15:20:00,97.3,69.0,29.65,SSE,163,10.0,29.0,40,0.00,,---,0.00,VWS V14.01,2013-05-18 20:20:00,
2013-05-18 15:23:00,97.2,68.9,29.66,South,189,8.0,29.0,40,0.00,,---,0.00,VWS V14.01,2013-05-18 20:23:00,
2013-05-18 15:26:00,96.1,68.6,29.66,SSE,163,10.0,29.0,41,0.00,,---,0.00,VWS V14.01,2013-05-18 20:26:00,
2013-05-18 15:28:00,95.4,68.7,29.65,South,183,7.0,29.0,42,0.00,,---,0.00,VWS V14.01,2013-05-18 20:28:00,
2013-05-18 15:29:00,95.2,69.2,29.65,South,188,12.0,17.0,43,0.00,,---,0.00,VWS V14.01,2013-05-18 20:29:00,
2013-05-18 15:32:00,95.2,69.9,29.65,SSE,153,10.0,17.0,44,0.00,,---,0.00,VWS V14.01,2013-05-18 20:32:00,
2013-05-18 15:35:00,95.7,70.3,29.65,SSE,155,14.0,17.0,44,0.00,,---,0.00,VWS V14.01,2013-05-18 20:35:00,
2013-05-18 15:38:00,96.1,69.3,29.65,SSE,167,14.0,18.0,42,0.00,,---,0.00,VWS V14.01,2013-05-18 20:38:00,
2013-05-18 15:41:00,96.3,69.5,29.65,SSE,155,10.0,18.0,42,0.00,,---,0.00,VWS V14.01,2013-05-18 20:41:00,
2013-05-18 15:47:00,96.9,69.3,29.65,South,175,14.0,20.0,41,0.00,,---,0.00,VWS V14.01,2013-05-18 20:47:00,
2013-05-18 15:50:00,96.5,69.0,29.65,SSE,155,6.0,20.0,41,0.00,,---,0.00,VWS V14.01,2013-05-18 20:50:00,
2013-05-18 15:53:00,96.3,68.8,29.64,SE,146,6.0,20.0,41,0.00,,---,0.00,VWS V14.01,2013-05-18 20:53:00,
2013-05-18 15:58:00,96.0,68.5,29.64,SE,136,11.0,20.0,41,0.00,,---,0.00,VWS V14.01,2013-05-18 20:58:00,
2013-05-18 15:59:00,95.9,69.1,29.64,SSW,194,14.0,16.0,42,0.00,,---,0.00,VWS V14.01,2013-05-18 20:59:00,
2013-05-18 16:02:00,96.1,69.3,29.64,SE,134,7.0,18.0,42,0.00,,---,0.00,VWS V14.01,2013-05-18 21:02:00,
2013-05-18 16:06:00,96.6,69.8,29.64,SE,144,10.0,19.0,42,0.00,,---,0.00,VWS V14.01,2013-05-18 21:06:00,
2013-05-18 16:09:00,96.0,68.5,29.63,South,170,13.0,19.0,41,0.00,,---,0.00,VWS V14.01,2013-05-18 21:09:00,
2013-05-18 16:12:00,95.0,68.3,29.63,SSE,164,9.0,22.0,42,0.00,,---,0.00,VWS V14.01,2013-05-18 21:12:00,
2013-05-18 16:15:00,94.7,68.7,29.63,South,175,17.0,22.0,43,0.00,,---,0.00,VWS V14.01,2013-05-18 21:15:00,
2013-05-18 16:18:00,94.2,69.0,29.63,SSE,162,8.0,22.0,44,0.00,,---,0.00,VWS V14.01,2013-05-18 21:18:00,
2013-05-18 16:21:00,94.4,69.8,29.63,SSE,154,12.0,22.0,45,0.00,,---,0.00,VWS V14.01,2013-05-18 21:21:00,
2013-05-18 16:27:00,95.7,68.9,29.63,SE,141,14.0,22.0,42,0.00,,---,0.00,VWS V14.01,2013-05-18 21:27:00,
2013-05-18 16:28:00,95.8,69.0,29.63,South,191,12.0,22.0,42,0.00,,---,0.00,VWS V14.01,2013-05-18 21:28:00,
2013-05-18 16:30:00,96.0,69.2,29.63,SSE,159,11.0,13.0,42,0.00,,---,0.00,VWS V14.01,2013-05-18 21:30:00,
2013-05-18 16:36:00,96.2,68.7,29.63,SSE,153,12.0,19.0,41,0.00,,---,0.00,VWS V14.01,2013-05-18 21:36:00,
2013-05-18 16:39:00,96.1,68.6,29.63,SE,142,13.0,19.0,41,0.00,,---,0.00,VWS V14.01,2013-05-18 21:39:00,
2013-05-18 16:45:00,96.6,68.3,29.62,SSE,163,12.0,19.0,40,0.00,,---,0.00,VWS V14.01,2013-05-18 21:45:00,
2013-05-18 16:48:00,96.4,67.4,29.62,South,184,14.0,20.0,39,0.00,,---,0.00,VWS V14.01,2013-05-18 21:48:00,
2013-05-18 16:51:00,96.2,67.2,29.62,SSE,157,20.0,20.0,39,0.00,,---,0.00,VWS V14.01,2013-05-18 21:51:00,
2013-05-18 16:54:00,95.8,66.9,29.62,SSE,167,10.0,20.0,39,0.00,,---,0.00,VWS V14.01,2013-05-18 21:54:00,
2013-05-18 16:57:00,95.3,66.4,29.62,South,174,11.0,20.0,39,0.00,,---,0.00,VWS V14.01,2013-05-18 21:57:00,
2013-05-18 16:58:00,94.8,66.0,29.62,SSE,151,12.0,20.0,39,0.00,,---,0.00,VWS V14.01,2013-05-18 21:58:00,
2013-05-18 17:00:00,94.6,66.6,29.62,SSE,160,15.0,18.0,40,0.00,,---,0.00,VWS V14.01,2013-05-18 22:00:00,
2013-05-18 17:03:00,94.8,66.7,29.62,SSW,194,15.0,19.0,40,0.00,,---,0.00,VWS V14.01,2013-05-18 22:03:00,
2013-05-18 17:06:00,95.0,67.6,29.62,SSE,164,10.0,19.0,41,0.00,,---,0.00,VWS V14.01,2013-05-18 22:06:00,
2013-05-18 17:09:00,94.8,67.4,29.62,South,178,11.0,20.0,41,0.00,,---,0.00,VWS V14.01,2013-05-18 22:09:00,
2013-05-18 17:12:00,94.7,68.1,29.62,SSE,148,9.0,20.0,42,0.00,,---,0.00,VWS V14.01,2013-05-18 22:12:00,
2013-05-18 17:15:00,94.8,68.2,29.62,SSE,155,16.0,20.0,42,0.00,,---,0.00,VWS V14.01,2013-05-18 22:15:00,
2013-05-18 17:18:00,94.4,67.8,29.62,South,188,9.0,20.0,42,0.00,,---,0.00,VWS V14.01,2013-05-18 22:18:00,
2013-05-18 17:24:00,94.2,67.6,29.62,South,169,10.0,20.0,42,0.00,,---,0.00,VWS V14.01,2013-05-18 22:24:00,
2013-05-18 17:27:00,94.2,68.3,29.62,SE,139,15.0,20.0,43,0.00,,---,0.00,VWS V14.01,2013-05-18 22:27:00,
2013-05-18 17:30:00,94.3,69.1,29.62,SSE,168,11.0,17.0,44,0.00,,---,0.00,VWS V14.01,2013-05-18 22:30:00,
2013-05-18 17:33:00,94.5,69.2,29.62,SSE,157,14.0,17.0,44,0.00,,---,0.00,VWS V14.01,2013-05-18 22:33:00,
2013-05-18 17:39:00,94.0,68.8,29.62,SSE,151,15.0,23.0,44,0.00,,---,0.00,VWS V14.01,2013-05-18 22:39:00,
2013-05-18 18:34:00,92.7,68.9,29.59,South,179,9.0,20.0,46,0.00,,---,0.00,VWS V14.01,2013-05-18 23:34:00,
2013-05-18 18:37:00,92.7,68.9,29.59,SSE,159,9.0,20.0,46,0.00,,---,0.00,VWS V14.01,2013-05-18 23:37:00,
2013-05-18 18:40:00,92.8,68.4,29.59,SSE,165,15.0,27.0,45,0.00,,---,0.00,VWS V14.01,2013-05-18 23:40:00,
2013-05-18 18:43:00,92.7,68.3,29.59,SSE,154,15.0,27.0,45,0.00,,---,0.00,VWS V14.01,2013-05-18 23:43:00,
2013-05-18 18:49:00,92.4,68.0,29.59,SSW,192,14.0,27.0,45,0.00,,---,0.00,VWS V14.01,2013-05-18 23:49:00,
2013-05-18 18:52:00,92.3,67.9,29.59,South,185,12.0,27.0,45,0.00,,---,0.00,VWS V14.01,2013-05-18 23:52:00,
2013-05-18 18:55:00,92.1,68.4,29.59,SSE,165,16.0,27.0,46,0.00,,---,0.00,VWS V14.01,2013-05-18 23:55:00,
2013-05-18 18:58:00,91.8,68.1,29.59,South,174,13.0,27.0,46,0.00,,---,0.00,VWS V14.01,2013-05-18 23:58:00,
2013-05-18 19:04:00,91.5,68.4,29.58,SSE,148,12.0,19.0,47,0.00,,---,0.00,VWS V14.01,2013-05-19 00:04:00,
2013-05-18 19:07:00,91.5,68.4,29.59,SSE,167,17.0,19.0,47,0.00,,---,0.00,VWS V14.01,2013-05-19 00:07:00,
2013-05-18 19:13:00,91.3,68.3,29.59,SSE,148,14.0,20.0,47,0.00,,---,0.00,VWS V14.01,2013-05-19 00:13:00,
2013-05-18 19:16:00,91.1,68.1,29.59,SSE,148,9.0,20.0,47,0.00,,---,0.00,VWS V14.01,2013-05-19 00:16:00,
2013-05-18 19:19:00,90.7,68.3,29.59,SSE,164,8.0,20.0,48,0.00,,---,0.00,VWS V14.01,2013-05-19 00:19:00,
2013-05-18 19:22:00,90.4,68.1,29.59,South,173,5.0,20.0,48,0.00,,---,0.00,VWS V14.01,2013-05-19 00:22:00,
2013-05-18 19:25:00,90.2,68.5,29.58,South,174,14.0,20.0,49,0.00,,---,0.00,VWS V14.01,2013-05-19 00:25:00,
2013-05-18 19:28:00,90.1,68.4,29.58,SSE,161,13.0,20.0,49,0.00,,---,0.00,VWS V14.01,2013-05-19 00:28:00,
2013-05-18 19:31:00,90.1,67.8,29.58,SSE,152,9.0,20.0,48,0.00,,---,0.00,VWS V14.01,2013-05-19 00:31:00,
2013-05-18 19:37:00,89.7,68.0,29.58,South,182,9.0,20.0,49,0.00,,---,0.00,VWS V14.01,2013-05-19 00:37:00,
2013-05-18 19:40:00,89.6,67.9,29.57,SSE,163,13.0,20.0,49,0.00,,---,0.00,VWS V14.01,2013-05-19 00:40:00,
2013-05-18 19:43:00,89.4,67.7,29.58,South,173,12.0,20.0,49,0.00,,---,0.00,VWS V14.01,2013-05-19 00:43:00,
2013-05-18 19:49:00,89.3,67.7,29.58,SSE,166,6.0,21.0,49,0.00,,---,0.00,VWS V14.01,2013-05-19 00:49:00,
2013-05-18 19:52:00,89.2,67.6,29.58,SSE,159,10.0,21.0,49,0.00,,---,0.00,VWS V14.01,2013-05-19 00:52:00,
2013-05-18 19:55:00,89.2,67.0,29.58,SE,146,9.0,21.0,48,0.00,,---,0.00,VWS V14.01,2013-05-19 00:55:00,
2013-05-18 19:58:00,89.1,67.5,29.59,SSW,193,11.0,21.0,49,0.00,,---,0.00,VWS V14.01,2013-05-19 00:58:00,
2013-05-18 20:01:00,89.0,66.8,29.59,SSE,155,12.0,16.0,48,0.00,,---,0.00,VWS V14.01,2013-05-19 01:01:00,
2013-05-18 20:04:00,89.1,66.9,29.59,South,182,10.0,16.0,48,0.00,,---,0.00,VWS V14.01,2013-05-19 01:04:00,
2013-05-18 20:07:00,89.0,67.4,29.59,South,188,7.0,16.0,49,0.00,,---,0.00,VWS V14.01,2013-05-19 01:07:00,
2013-05-18 20:10:00,88.9,67.3,29.59,SSE,161,12.0,17.0,49,0.00,,---,0.00,VWS V14.01,2013-05-19 01:10:00,
2013-05-18 20:16:00,88.6,67.0,29.59,SSE,168,6.0,17.0,49,0.00,,---,0.00,VWS V14.01,2013-05-19 01:16:00,
2013-05-18 20:19:00,88.5,66.9,29.60,SSE,165,9.0,17.0,49,0.00,,---,0.00,VWS V14.01,2013-05-19 01:19:00,
2013-05-18 20:22:00,88.5,66.9,29.60,SSE,148,10.0,17.0,49,0.00,,---,0.00,VWS V14.01,2013-05-19 01:22:00,
2013-05-18 20:25:00,88.4,66.8,29.60,SSE,155,6.0,17.0,49,0.00,,---,0.00,VWS V14.01,2013-05-19 01:25:00,
2013-05-18 20:31:00,88.3,66.7,29.60,SSE,164,7.0,17.0,49,0.00,,---,0.00,VWS V14.01,2013-05-19 01:31:00,
2013-05-18 20:34:00,88.1,66.6,29.60,South,181,10.0,17.0,49,0.00,,---,0.00,VWS V14.01,2013-05-19 01:34:00,
2013-05-18 20:37:00,87.9,66.9,29.60,South,186,9.0,17.0,50,0.00,,---,0.00,VWS V14.01,2013-05-19 01:37:00,
2013-05-18 20:40:00,87.9,66.9,29.60,SE,144,7.0,20.0,50,0.00,,---,0.00,VWS V14.01,2013-05-19 01:40:00,
2013-05-18 20:43:00,87.9,66.9,29.60,SSE,167,7.0,20.0,50,0.00,,---,0.00,VWS V14.01,2013-05-19 01:43:00,
2013-05-18 20:50:00,87.7,66.8,29.60,SSE,153,7.0,20.0,50,0.00,,---,0.00,VWS V14.01,2013-05-19 01:50:00,
2013-05-18 20:56:00,87.3,67.0,29.60,South,181,8.0,20.0,51,0.00,,---,0.00,VWS V14.01,2013-05-19 01:56:00,
2013-05-18 20:59:00,87.2,66.9,29.60,South,169,7.0,7.0,51,0.00,,---,0.00,VWS V14.01,2013-05-19 01:59:00,
2013-05-18 21:05:00,86.9,67.2,29.60,South,191,8.0,17.0,52,0.00,,---,0.00,VWS V14.01,2013-05-19 02:05:00,
2013-05-18 21:11:00,86.7,67.0,29.60,SE,144,5.0,17.0,52,0.00,,---,0.00,VWS V14.01,2013-05-19 02:11:00,
2013-05-18 21:14:00,86.6,66.9,29.60,SSE,159,8.0,17.0,52,0.00,,---,0.00,VWS V14.01,2013-05-19 02:14:00,
2013-05-18 21:17:00,86.5,67.3,29.60,South,180,6.0,17.0,53,0.00,,---,0.00,VWS V14.01,2013-05-19 02:17:00,
2013-05-18 21:20:00,86.4,67.3,29.60,SSE,150,9.0,17.0,53,0.00,,---,0.00,VWS V14.01,2013-05-19 02:20:00,
2013-05-18 21:26:00,86.1,67.0,29.60,SSE,152,10.0,17.0,53,0.00,,---,0.00,VWS V14.01,2013-05-19 02:26:00,
2013-05-18 21:28:00,86.0,67.4,29.60,SSE,158,10.0,17.0,54,0.00,,---,0.00,VWS V14.01,2013-05-19 02:28:00,
2013-05-18 21:29:00,86.0,67.4,29.60,ESE,121,11.0,11.0,54,0.00,,---,0.00,VWS V14.01,2013-05-19 02:29:00,
2013-05-18 21:35:00,85.9,67.3,29.60,SSE,165,10.0,14.0,54,0.00,,---,0.00,VWS V14.01,2013-05-19 02:35:00,
2013-05-18 21:38:00,85.9,67.3,29.60,SSE,160,11.0,15.0,54,0.00,,---,0.00,VWS V14.01,2013-05-19 02:38:00,
2013-05-18 21:41:00,85.8,67.2,29.60,South,171,14.0,20.0,54,0.00,,---,0.00,VWS V14.01,2013-05-19 02:41:00,
2013-05-18 21:44:00,85.8,67.2,29.60,South,181,8.0,20.0,54,0.00,,---,0.00,VWS V14.01,2013-05-19 02:44:00,
2013-05-18 21:47:00,85.7,67.2,29.60,SSE,159,9.0,20.0,54,0.00,,---,0.00,VWS V14.01,2013-05-19 02:47:00,
2013-05-18 21:50:00,85.7,67.2,29.60,South,174,9.0,20.0,54,0.00,,---,0.00,VWS V14.01,2013-05-19 02:50:00,
2013-05-18 21:53:00,85.6,67.6,29.60,SSE,162,15.0,20.0,55,0.00,,---,0.00,VWS V14.01,2013-05-19 02:53:00,
2013-05-18 21:56:00,85.6,67.6,29.60,SE,134,14.0,20.0,55,0.00,,---,0.00,VWS V14.01,2013-05-19 02:56:00,
2013-05-18 21:58:00,85.4,67.4,29.60,SSE,154,10.0,20.0,55,0.00,,---,0.00,VWS V14.01,2013-05-19 02:58:00,
2013-05-18 21:59:00,85.4,67.4,29.60,South,173,8.0,13.0,55,0.00,,---,0.00,VWS V14.01,2013-05-19 02:59:00,
2013-05-18 22:02:00,85.2,67.2,29.61,South,171,10.0,13.0,55,0.00,,---,0.00,VWS V14.01,2013-05-19 03:02:00,
2013-05-18 22:04:00,83.0,67.2,29.61,South,188,14.0,18.0,59,0.00,,---,0.00,VWS V14.01,2013-05-19 03:04:00,
2013-05-18 22:05:00,85.1,67.7,29.60,South,171,12.0,13.0,56,0.00,,---,0.00,VWS V14.01,2013-05-19 03:05:00,
2013-05-18 22:07:00,83.0,66.7,29.61,SSW,197,9.0,18.0,58,0.00,,---,0.00,VWS V14.01,2013-05-19 03:07:00,
2013-05-18 22:08:00,85.0,67.6,29.61,South,186,9.0,13.0,56,0.00,,---,0.00,VWS V14.01,2013-05-19 03:08:00,
2013-05-18 22:10:00,82.9,66.6,29.62,SSE,165,9.0,18.0,58,0.00,,---,0.00,VWS V14.01,2013-05-19 03:10:00,
2013-05-18 22:13:00,82.8,66.5,29.62,SSE,168,13.0,18.0,58,0.00,,---,0.00,VWS V14.01,2013-05-19 03:13:00,
2013-05-18 22:14:00,84.8,67.4,29.61,South,175,7.0,15.0,56,0.00,,---,0.00,VWS V14.01,2013-05-19 03:14:00,
2013-05-18 22:16:00,82.7,66.4,29.62,South,173,10.0,18.0,58,0.00,,---,0.00,VWS V14.01,2013-05-19 03:16:00,
2013-05-18 22:17:00,84.6,67.7,29.61,SSE,157,6.0,15.0,57,0.00,,---,0.00,VWS V14.01,2013-05-19 03:17:00,
2013-05-18 22:19:00,82.5,65.8,29.62,SSE,154,6.0,18.0,57,0.00,,---,0.00,VWS V14.01,2013-05-19 03:19:00,
2013-05-18 22:20:00,84.4,67.5,29.61,South,173,5.0,15.0,57,0.00,,---,0.00,VWS V14.01,2013-05-19 03:20:00,
2013-05-18 22:22:00,82.4,65.7,29.62,South,178,8.0,18.0,57,0.00,,---,0.00,VWS V14.01,2013-05-19 03:22:00,
2013-05-18 22:23:00,84.3,67.9,29.60,South,186,9.0,15.0,58,0.00,,---,0.00,VWS V14.01,2013-05-19 03:23:00,
2013-05-18 22:25:00,82.2,65.5,29.62,South,175,7.0,18.0,57,0.00,,---,0.00,VWS V14.01,2013-05-19 03:25:00,
2013-05-18 22:26:00,84.1,67.7,29.61,SSE,158,10.0,15.0,58,0.00,,---,0.00,VWS V14.01,2013-05-19 03:26:00,
2013-05-18 22:28:00,82.2,65.5,29.63,South,172,7.0,18.0,57,0.00,,---,0.00,VWS V14.01,2013-05-19 03:28:00,
2013-05-18 22:29:00,84.1,67.7,29.61,SSE,163,7.0,15.0,58,0.00,,---,0.00,VWS V14.01,2013-05-19 03:29:00,
2013-05-18 22:30:00,82.2,65.5,29.63,SSE,164,7.0,18.0,57,0.00,,---,0.00,VWS V14.01,2013-05-19 03:30:00,
2013-05-18 22:31:00,82.2,65.5,29.63,SSE,151,14.0,17.0,57,0.00,,---,0.00,VWS V14.01,2013-05-19 03:31:00,
2013-05-18 22:32:00,83.9,68.1,29.61,South,180,11.0,15.0,59,0.00,,---,0.00,VWS V14.01,2013-05-19 03:32:00,
2013-05-18 22:34:00,82.1,65.4,29.63,South,174,8.0,17.0,57,0.00,,---,0.00,VWS V14.01,2013-05-19 03:34:00,
2013-05-18 22:37:00,81.9,65.2,29.63,South,175,8.0,17.0,57,0.00,,---,0.00,VWS V14.01,2013-05-19 03:37:00,
2013-05-18 22:38:00,83.6,67.8,29.61,SE,136,5.0,15.0,59,0.00,,---,0.00,VWS V14.01,2013-05-19 03:38:00,
2013-05-18 22:40:00,81.9,65.2,29.63,South,171,7.0,20.0,57,0.00,,---,0.00,VWS V14.01,2013-05-19 03:40:00,
2013-05-18 22:43:00,81.8,65.1,29.63,South,176,9.0,20.0,57,0.00,,---,0.00,VWS V14.01,2013-05-19 03:43:00,
2013-05-18 22:44:00,83.3,68.0,29.61,SSE,155,8.0,16.0,60,0.00,,---,0.00,VWS V14.01,2013-05-19 03:44:00,
2013-05-18 22:46:00,81.8,65.1,29.63,SSE,153,6.0,20.0,57,0.00,,---,0.00,VWS V14.01,2013-05-19 03:46:00,
2013-05-18 22:47:00,83.2,67.9,29.61,South,186,13.0,16.0,60,0.00,,---,0.00,VWS V14.01,2013-05-19 03:47:00,
2013-05-18 22:49:00,81.6,64.9,29.63,South,182,9.0,20.0,57,0.00,,---,0.00,VWS V14.01,2013-05-19 03:49:00,
2013-05-18 22:50:00,83.3,67.5,29.61,South,172,7.0,19.0,59,0.00,,---,0.00,VWS V14.01,2013-05-19 03:50:00,
2013-05-18 22:52:00,81.5,64.8,29.64,SSE,164,9.0,20.0,57,0.00,,---,0.00,VWS V14.01,2013-05-19 03:52:00,
2013-05-18 22:53:00,83.2,67.4,29.62,SSE,161,10.0,19.0,59,0.00,,---,0.00,VWS V14.01,2013-05-19 03:53:00,
2013-05-18 22:55:00,81.4,64.7,29.64,SSE,160,8.0,20.0,57,0.00,,---,0.00,VWS V14.01,2013-05-19 03:55:00,
2013-05-18 22:56:00,83.2,67.4,29.61,SSE,152,8.0,19.0,59,0.00,,---,0.00,VWS V14.01,2013-05-19 03:56:00,
2013-05-18 22:58:00,83.0,67.2,29.61,SSE,163,12.0,19.0,59,0.00,,---,0.00,VWS V14.01,2013-05-19 03:58:00,
2013-05-18 23:00:00,81.2,64.5,29.64,SSE,157,12.0,20.0,57,0.00,,---,0.00,VWS V14.01,2013-05-19 04:00:00,
2013-05-18 23:01:00,81.1,64.9,29.64,SSE,166,11.0,15.0,58,0.00,,---,0.00,VWS V14.01,2013-05-19 04:01:00,
2013-05-18 23:04:00,81.1,64.9,29.64,SE,138,7.0,17.0,58,0.00,,---,0.00,VWS V14.01,2013-05-19 04:04:00,
2013-05-18 23:07:00,80.9,64.8,29.64,South,171,10.0,17.0,58,0.00,,---,0.00,VWS V14.01,2013-05-19 04:07:00,
2013-05-18 23:10:00,80.8,64.7,29.64,SSE,161,10.0,17.0,58,0.00,,---,0.00,VWS V14.01,2013-05-19 04:10:00,
2013-05-18 23:13:00,80.6,64.5,29.64,South,171,9.0,17.0,58,0.00,,---,0.00,VWS V14.01,2013-05-19 04:13:00,
2013-05-18 23:16:00,80.5,64.9,29.64,SE,144,6.0,17.0,59,0.00,,---,0.00,VWS V14.01,2013-05-19 04:16:00,
2013-05-18 23:19:00,80.5,64.9,29.64,SSE,165,7.0,19.0,59,0.00,,---,0.00,VWS V14.01,2013-05-19 04:19:00,
2013-05-18 23:22:00,80.4,64.8,29.64,SSE,161,12.0,19.0,59,0.00,,---,0.00,VWS V14.01,2013-05-19 04:22:00,
2013-05-18 23:25:00,80.2,64.6,29.64,SSE,149,12.0,19.0,59,0.00,,---,0.00,VWS V14.01,2013-05-19 04:25:00,
2013-05-18 23:28:00,80.1,65.0,29.64,SW,221,6.0,19.0,60,0.00,,---,0.00,VWS V14.01,2013-05-19 04:28:00,
2013-05-18 23:30:00,80.0,64.9,29.64,SSE,157,7.0,19.0,60,0.00,,---,0.00,VWS V14.01,2013-05-19 04:30:00,
2013-05-18 23:31:00,79.9,64.8,29.64,SSE,156,7.0,13.0,60,0.00,,---,0.00,VWS V14.01,2013-05-19 04:31:00,
2013-05-18 23:34:00,79.8,64.7,29.64,South,174,7.0,14.0,60,0.00,,---,0.00,VWS V14.01,2013-05-19 04:34:00,
2013-05-18 23:38:00,79.7,65.1,29.64,SE,142,7.0,17.0,61,0.00,,---,0.00,VWS V14.01,2013-05-19 04:38:00,
2013-05-18 23:41:00,79.5,64.9,29.64,South,171,10.0,17.0,61,0.00,,---,0.00,VWS V14.01,2013-05-19 04:41:00,
2013-05-18 23:44:00,79.4,64.8,29.64,SSE,168,5.0,17.0,61,0.00,,---,0.00,VWS V14.01,2013-05-19 04:44:00,
2013-05-18 23:47:00,79.3,64.7,29.64,South,186,12.0,17.0,61,0.00,,---,0.00,VWS V14.01,2013-05-19 04:47:00,
2013-05-18 23:50:00,79.3,64.7,29.64,SSE,152,12.0,17.0,61,0.00,,---,0.00,VWS V14.01,2013-05-19 04:50:00,
2013-05-18 23:53:00,79.3,64.7,29.64,South,175,7.0,18.0,61,0.00,,---,0.00,VWS V14.01,2013-05-19 04:53:00,
2013-05-18 23:56:00,79.1,65.0,29.64,SSE,151,9.0,18.0,62,0.00,,---,0.00,VWS V14.01,2013-05-19 04:56:00,
2013-05-18 23:59:00,78.9,64.8,29.64,South,172,9.0,18.0,62,0.00,,---,0.00,VWS V14.01,2013-05-19 04:59:00,